logo tempoitalia

Diretta Meteo Kimball, Stati Uniti (USA)lunedì 31 agosto ore 00:35

Mappa
Sereno 18 °C Sereno 24 Ore: T.min 16 T.max 31
Ponente Ovest Km/h 13 Punto di rugiada: 10 °C Umidità: 59% Visibilità: 10 Km
Il sole sorge alle: 06:20 Il sole tramonta alle: 19:29
31 Agosto 2026 00:35 tempo osservato: Sereno Sereno 18 59 1019 vento: Nord O 13
31 Agosto 2026 00:15 tempo osservato: Sereno Sereno 18 59 1019 vento: Nord O/NO 9.3
30 Agosto 2026 23:55 tempo osservato: Sereno Sereno 17 63 1019 vento: Nord N 0
30 Agosto 2026 23:35 tempo osservato: Sereno Sereno 17 63 1019 vento: Nord O 7.4
30 Agosto 2026 23:15 tempo osservato: Sereno Sereno 18 59 1019 vento: Nord O/NO 11.1
30 Agosto 2026 22:55 tempo osservato: Sereno Sereno 19 55 1019 vento: Nord O 9.3
30 Agosto 2026 22:35 tempo osservato: Sereno Sereno 18 59 1019 vento: Nord O 11.1
30 Agosto 2026 22:15 tempo osservato: Sereno Sereno 19 55 1019 vento: Nord O 14.8
30 Agosto 2026 21:55 tempo osservato: Sereno Sereno 19 55 1019 vento: Nord O/SO 13
30 Agosto 2026 21:35 tempo osservato: Sereno Sereno 19 55 1019 vento: Nord O/SO 14.8
30 Agosto 2026 21:15 tempo osservato: Sereno Sereno 19 55 1019 vento: Nord O/SO 11.1
30 Agosto 2026 20:55 tempo osservato: Sereno Sereno 19 55 1019 vento: Nord O/SO 9.3
30 Agosto 2026 20:35 tempo osservato: Sereno Sereno 20 52 1019 vento: Nord SO 11.1
30 Agosto 2026 20:15 tempo osservato: Sereno Sereno 21 49 1018 vento: Nord O/SO 13
30 Agosto 2026 19:55 tempo osservato: Sereno Sereno 21 49 1018 vento: Nord O/SO 13
30 Agosto 2026 19:35 tempo osservato: Sereno Sereno 22 46 1018 vento: Nord O/SO 18.5
30 Agosto 2026 19:15 tempo osservato: Sereno Sereno 23 43 1018 vento: Nord O/SO 16.7
30 Agosto 2026 18:55 tempo osservato: Sereno Sereno 24 41 1018 vento: Nord O/SO 18.5
30 Agosto 2026 18:35 tempo osservato: Sereno Sereno 26 34 1018 vento: Nord O 25.9
30 Agosto 2026 18:15 tempo osservato: Sereno Sereno 27 32 1018 vento: Nord O 24
30 Agosto 2026 17:55 tempo osservato: Sereno Sereno 26 34 1018 vento: Nord O 24
30 Agosto 2026 17:35 tempo osservato: Sereno Sereno 27 34 1018 vento: Nord O/NO 31.5
30 Agosto 2026 17:15 tempo osservato: Sereno Sereno 27 32 1018 vento: Nord O 27.8
30 Agosto 2026 16:55 tempo osservato: Nuvoloso Nuvoloso 27 32 1018 vento: Nord O 31.5
30 Agosto 2026 16:35 tempo osservato: Nuvoloso Nuvoloso 27 32 1018 vento: Nord O 31.5
30 Agosto 2026 16:15 tempo osservato: Nuvoloso Nuvoloso 27 32 1018 vento: Nord O 33.3
30 Agosto 2026 15:55 tempo osservato: Molto Nuvoloso Molto Nuvoloso 26 34 1018 vento: Nord O 37
30 Agosto 2026 15:35 tempo osservato: Molto Nuvoloso Molto Nuvoloso 26 34 1018 vento: Nord O 31.5
30 Agosto 2026 15:15 tempo osservato: Molto Nuvoloso Molto Nuvoloso 28 28 1018 vento: Nord O 46.3
30 Agosto 2026 14:55 tempo osservato: Sereno Sereno 30 25 1018 vento: Nord O 42.6
30 Agosto 2026 14:35 tempo osservato: Sereno Sereno 30 25 1018 vento: Nord O 51.8
30 Agosto 2026 14:15 tempo osservato: Sereno Sereno 31 23 1017 vento: Nord O/NO 46.3
30 Agosto 2026 13:55 tempo osservato: Sereno Sereno 31 23 1017 vento: Nord O/SO 29.6
30 Agosto 2026 13:35 tempo osservato: Sereno Sereno 31 23 1017 vento: Nord O/SO 38.8
30 Agosto 2026 13:15 tempo osservato: Sereno Sereno 30 25 1017 vento: Nord O/SO 38.8
30 Agosto 2026 12:55 tempo osservato: Sereno Sereno 30 27 1017 vento: Nord O/SO 25.9
30 Agosto 2026 12:35 tempo osservato: Sereno Sereno 29 28 1017 vento: Nord O/SO 35.2
30 Agosto 2026 12:15 tempo osservato: Sereno Sereno 29 26 1017 vento: Nord O 29.6
30 Agosto 2026 11:55 tempo osservato: Sereno Sereno 29 28 1017 vento: Nord O 29.6
30 Agosto 2026 11:35 tempo osservato: Sereno Sereno 29 26 1017 vento: Nord O 31.5
30 Agosto 2026 11:15 tempo osservato: Sereno Sereno 28 30 1017 vento: Nord O 33.3
30 Agosto 2026 10:55 tempo osservato: Sereno Sereno 27 30 1018 vento: Nord O 29.6
30 Agosto 2026 10:35 tempo osservato: Sereno Sereno 28 30 1018 vento: Nord O 35.2
30 Agosto 2026 10:15 tempo osservato: Sereno Sereno 29 28 1018 vento: Nord O/NO 37
30 Agosto 2026 09:55 tempo osservato: Sereno Sereno 28 30 1018 vento: Nord O 27.8
30 Agosto 2026 09:35 tempo osservato: Sereno Sereno 27 32 1018 vento: Nord O 29.6
30 Agosto 2026 09:15 tempo osservato: Sereno Sereno 25 38 1018 vento: Nord O 16.7
30 Agosto 2026 08:55 tempo osservato: Sereno Sereno 23 46 1018 vento: Nord O 7.4
30 Agosto 2026 08:35 tempo osservato: Sereno Sereno 23 43 1018 vento: Nord O/NO 16.7
30 Agosto 2026 08:15 tempo osservato: Sereno Sereno 22 49 1018 vento: Nord O/SO 9.3
30 Agosto 2026 07:55 tempo osservato: Sereno Sereno 20 59 1018 vento: Nord S/SO 9.3
30 Agosto 2026 07:35 tempo osservato: Sereno Sereno 19 63 1018 vento: Nord N 0
30 Agosto 2026 07:15 tempo osservato: Sereno Sereno 17 72 1018 vento: Nord N 5.5
30 Agosto 2026 06:55 tempo osservato: Nuvoloso Nuvoloso 17 67 1018 vento: Nord N 0
30 Agosto 2026 06:35 tempo osservato: Molto Nuvoloso Molto Nuvoloso 18 63 1018 vento: Nord N 0
30 Agosto 2026 06:15 tempo osservato: Nuvoloso Nuvoloso 18 63 1017 vento: Nord O 11.1
30 Agosto 2026 05:55 tempo osservato: Sereno Sereno 19 55 1017 vento: Nord O 11.1
30 Agosto 2026 05:35 tempo osservato: Nuvoloso Nuvoloso 20 52 1017 vento: Nord O/SO 14.8
30 Agosto 2026 05:15 tempo osservato: Nuvoloso Nuvoloso 19 59 1016 vento: Nord SO 20.3
30 Agosto 2026 04:55 tempo osservato: Nuvoloso Nuvoloso 19 55 1016 vento: Nord O/SO 16.7
30 Agosto 2026 04:35 tempo osservato: Coperto Coperto 18 63 1017 vento: Nord S/SO 11.1
30 Agosto 2026 04:15 tempo osservato: Coperto Coperto 19 55 1017 vento: Nord O/SO 11.1
30 Agosto 2026 03:55 tempo osservato: Nuvoloso Nuvoloso 18 59 1017 vento: Nord O/SO 13
30 Agosto 2026 03:35 tempo osservato: Sereno Sereno 18 59 1017 vento: Nord O 9.3
30 Agosto 2026 03:15 tempo osservato: Sereno Sereno 18 59 1016 vento: Nord O/SO 13
30 Agosto 2026 02:55 tempo osservato: Sereno Sereno 16 72 1016 vento: Nord O/SO 11.1
30 Agosto 2026 02:35 tempo osservato: Sereno Sereno 17 67 1016 vento: Nord O/SO 13
30 Agosto 2026 02:15 tempo osservato: Sereno Sereno 16 72 1016 vento: Nord O 9.3
30 Agosto 2026 01:55 tempo osservato: Sereno Sereno 17 67 1017 vento: Nord O 13
30 Agosto 2026 01:35 tempo osservato: Sereno Sereno 16 72 1017 vento: Nord O/SO 14.8
30 Agosto 2026 01:15 tempo osservato: Sereno Sereno 17 67 1017 vento: Nord N 5.5
30 Agosto 2026 00:55 tempo osservato: Sereno Sereno 17 67 1017 vento: Nord O/SO 9.3
30 Agosto 2026 00:35 tempo osservato: Sereno Sereno 17 67 1017 vento: Nord SO 9.3